Time;durP1;ratioP1;P1;durP2;ratioP2;P2;SDS_P1;SDS_P2;PMS_P1;PMS_P2;Temp;Humidity;BMP_temperature;BMP_pressure;BME280_temperature;BME280_humidity;BME280_pressure;Samples;Min_cycle;Max_cycle;Signal;HPM_P1;HPM_P2
2021/10/20 00:00:13;;;;;;;2.80;2.43;;;12.20;79.30;;;;;;4948816;28;20225;-72
2021/10/20 00:02:41;;;;;;;3.70;1.50;;;12.20;79.30;;;;;;4949069;28;20222;-72
2021/10/20 00:05:08;;;;;;;8.53;2.00;;;12.20;79.30;;;;;;4952176;28;20318;-72
2021/10/20 00:07:35;;;;;;;2.30;2.20;;;12.20;79.40;;;;;;4948284;29;20284;-72
2021/10/20 00:10:04;;;;;;;3.10;2.40;;;12.20;79.40;;;;;;4952347;28;20256;-72
2021/10/20 00:12:32;;;;;;;2.07;1.97;;;12.20;79.50;;;;;;4954203;28;20237;-72
2021/10/20 00:14:59;;;;;;;2.07;1.87;;;12.20;79.70;;;;;;4948634;29;20225;-72
2021/10/20 00:17:26;;;;;;;2.67;2.47;;;12.10;79.70;;;;;;4946250;29;20218;-72
2021/10/20 00:19:58;;;;;;;3.00;1.97;;;12.20;79.90;;;;;;4945663;28;20281;-73
2021/10/20 00:22:25;;;;;;;2.07;1.83;;;12.20;80.10;;;;;;4947071;28;20226;-73
2021/10/20 00:24:52;;;;;;;11.30;4.17;;;12.20;80.00;;;;;;4959114;28;20543;-73
2021/10/20 00:27:20;;;;;;;3.83;2.87;;;12.20;79.80;;;;;;4959800;28;20324;-72
2021/10/20 00:29:47;;;;;;;6.27;2.93;;;12.20;79.80;;;;;;4942859;28;20289;-72
2021/10/20 00:32:14;;;;;;;3.57;3.07;;;12.20;79.70;;;;;;4961289;28;20222;-72
2021/10/20 00:34:41;;;;;;;1.90;1.80;;;12.10;79.60;;;;;;4948043;28;20225;-72
2021/10/20 00:37:08;;;;;;;1.97;1.87;;;12.10;79.60;;;;;;4944926;28;20278;-73
2021/10/20 00:39:35;;;;;;;0.80;0.80;;;12.10;79.70;;;;;;4953263;29;20635;-72
2021/10/20 00:42:03;;;;;;;2.20;1.60;;;12.10;79.80;;;;;;4947869;28;20606;-72
2021/10/20 00:44:43;;;;;;;4.57;2.67;;;12.00;79.90;;;;;;4947163;28;20284;-72
2021/10/20 00:47:10;;;;;;;4.13;1.57;;;11.90;79.90;;;;;;4946811;29;20716;-72
2021/10/20 00:49:37;;;;;;;2.77;2.57;;;11.90;80.00;;;;;;4944562;28;20214;-72
2021/10/20 00:52:03;;;;;;;4.03;2.13;;;11.80;80.10;;;;;;4942313;28;20238;-72
2021/10/20 00:54:30;;;;;;;3.30;2.23;;;11.80;80.20;;;;;;4947484;28;20229;-72
2021/10/20 00:56:57;;;;;;;8.13;1.70;;;11.80;80.20;;;;;;4944471;29;20622;-72
2021/10/20 00:59:24;;;;;;;7.87;2.53;;;11.80;80.30;;;;;;4945917;28;20225;-72
2021/10/20 01:01:51;;;;;;;5.83;3.30;;;11.80;80.50;;;;;;4945261;29;20214;-72
2021/10/20 01:04:19;;;;;;;5.70;4.03;;;11.70;80.50;;;;;;4945668;28;20321;-74
2021/10/20 01:06:46;;;;;;;2.43;2.33;;;11.70;80.50;;;;;;4946633;29;20240;-73
2021/10/20 01:09:13;;;;;;;4.93;3.33;;;11.70;80.70;;;;;;4945374;28;20225;-73
2021/10/20 01:11:41;;;;;;;2.83;2.47;;;11.70;80.70;;;;;;4945503;28;20305;-73
2021/10/20 01:14:08;;;;;;;2.47;2.27;;;11.70;80.80;;;;;;4948759;28;20213;-74
2021/10/20 01:16:36;;;;;;;2.20;1.47;;;11.70;80.80;;;;;;4945968;29;20214;-73
2021/10/20 01:19:05;;;;;;;1.53;1.53;;;11.70;80.80;;;;;;4945801;28;20224;-73
2021/10/20 01:21:32;;;;;;;6.43;3.77;;;11.70;80.80;;;;;;4945735;28;20223;-73
2021/10/20 01:24:00;;;;;;;0.87;0.87;;;11.80;81.00;;;;;;4944838;29;20656;-73
2021/10/20 01:26:28;;;;;;;1.30;1.20;;;11.70;81.00;;;;;;4963531;28;20844;-73
2021/10/20 01:28:55;;;;;;;4.63;3.43;;;11.80;81.10;;;;;;4945917;29;20597;-74
2021/10/20 01:31:22;;;;;;;2.93;1.13;;;11.70;81.00;;;;;;4947793;28;20252;-73
2021/10/20 01:33:50;;;;;;;2.40;1.77;;;11.80;81.10;;;;;;4946834;28;20302;-73
2021/10/20 01:36:17;;;;;;;2.47;2.37;;;11.80;81.00;;;;;;4954105;29;20214;-73
2021/10/20 01:38:45;;;;;;;3.10;2.43;;;11.80;81.10;;;;;;4945350;28;20221;-72
2021/10/20 01:41:12;;;;;;;0.90;0.90;;;11.80;81.10;;;;;;4974568;28;20341;-72
2021/10/20 01:43:45;;;;;;;0.90;0.90;;;11.70;81.00;;;;;;4946612;29;20222;-72
2021/10/20 01:46:15;;;;;;;2.00;1.60;;;11.70;81.10;;;;;;4944183;29;20230;-72
2021/10/20 01:48:42;;;;;;;1.47;1.37;;;11.70;81.10;;;;;;4945193;28;20572;-72
2021/10/20 01:51:10;;;;;;;3.30;1.20;;;11.70;81.10;;;;;;4974020;28;20242;-72
2021/10/20 01:53:37;;;;;;;10.20;3.07;;;11.70;81.20;;;;;;4943562;29;20218;-73
2021/10/20 01:56:06;;;;;;;1.07;1.07;;;11.60;81.30;;;;;;4942917;29;20319;-72
2021/10/20 01:58:33;;;;;;;4.40;1.70;;;11.60;81.40;;;;;;4947959;28;20626;-72
2021/10/20 02:01:00;;;;;;;4.17;2.60;;;11.60;81.40;;;;;;4947889;29;20242;-72
2021/10/20 02:03:28;;;;;;;3.43;2.53;;;11.70;81.50;;;;;;4952945;28;20237;-72
2021/10/20 02:05:55;;;;;;;1.47;1.43;;;11.70;81.40;;;;;;4949077;29;20281;-72
2021/10/20 02:08:23;;;;;;;4.43;2.50;;;11.70;81.40;;;;;;4957013;28;20246;-73
2021/10/20 02:10:50;;;;;;;1.30;1.10;;;11.60;81.30;;;;;;4946954;28;20632;-72
2021/10/20 02:13:17;;;;;;;1.77;1.67;;;11.60;81.40;;;;;;4950725;29;20214;-72
2021/10/20 02:15:44;;;;;;;3.47;3.13;;;11.50;81.40;;;;;;4950071;29;20277;-72
2021/10/20 02:18:11;;;;;;;2.17;1.37;;;11.50;81.50;;;;;;4946551;29;20225;-72
2021/10/20 02:20:38;;;;;;;1.37;1.27;;;11.50;81.40;;;;;;4946782;28;20747;-72
2021/10/20 02:23:05;;;;;;;1.87;1.53;;;11.40;81.50;;;;;;4949575;29;20233;-72
2021/10/20 02:25:32;;;;;;;3.20;2.90;;;11.40;81.80;;;;;;4947835;29;20651;-72
2021/10/20 02:27:59;;;;;;;1.63;1.53;;;11.30;81.80;;;;;;4947072;28;20292;-72
2021/10/20 02:30:26;;;;;;;12.93;2.27;;;11.30;81.90;;;;;;4949680;28;20305;-72
2021/10/20 02:32:54;;;;;;;1.17;1.17;;;11.30;81.90;;;;;;4952853;29;20225;-72
2021/10/20 02:35:21;;;;;;;1.70;1.20;;;11.30;81.90;;;;;;4948842;29;20225;-72
2021/10/20 02:37:48;;;;;;;1.47;1.17;;;11.30;81.90;;;;;;4946271;28;20211;-72
2021/10/20 02:40:15;;;;;;;1.57;1.47;;;11.30;81.80;;;;;;4944295;28;20370;-72
2021/10/20 02:42:43;;;;;;;4.83;1.20;;;11.20;81.70;;;;;;4954073;28;20592;-72
2021/10/20 02:45:12;;;;;;;3.07;2.43;;;11.20;81.70;;;;;;4949590;28;20549;-72
2021/10/20 02:47:39;;;;;;;1.70;1.60;;;11.10;81.70;;;;;;4947684;28;20207;-72
2021/10/20 02:50:07;;;;;;;3.00;2.70;;;11.10;81.70;;;;;;4949522;28;20214;-72
2021/10/20 02:52:34;;;;;;;3.50;2.47;;;11.00;81.70;;;;;;4945297;28;20549;-73
2021/10/20 02:55:02;;;;;;;2.93;2.07;;;11.00;81.90;;;;;;4946145;29;20592;-73
2021/10/20 02:57:29;;;;;;;2.23;2.10;;;10.90;81.90;;;;;;4945595;29;20636;-73
2021/10/20 02:59:57;;;;;;;3.33;2.13;;;10.90;82.00;;;;;;4950687;28;20277;-73
2021/10/20 03:02:25;;;;;;;1.73;1.70;;;10.80;82.00;;;;;;4947486;28;20281;-73
2021/10/20 03:04:53;;;;;;;2.10;2.00;;;10.80;82.10;;;;;;4950817;29;20222;-73
2021/10/20 03:07:20;;;;;;;0.90;0.80;;;10.70;82.20;;;;;;4950346;28;20218;-73
2021/10/20 03:09:47;;;;;;;6.80;3.20;;;10.70;82.40;;;;;;4978336;28;20237;-72
2021/10/20 03:12:14;;;;;;;1.70;0.80;;;10.60;82.50;;;;;;4947136;29;20305;-72
2021/10/20 03:14:41;;;;;;;2.93;2.43;;;10.60;83.30;;;;;;4954513;28;20657;-72
2021/10/20 03:17:10;;;;;;;2.63;1.47;;;10.60;82.70;;;;;;4949554;28;20638;-72
2021/10/20 03:19:37;;;;;;;6.00;2.97;;;10.50;82.70;;;;;;4961151;28;20691;-72
2021/10/20 03:22:04;;;;;;;1.43;1.33;;;10.50;83.50;;;;;;4944288;28;20231;-72
2021/10/20 03:24:31;;;;;;;1.70;1.60;;;10.50;83.00;;;;;;4963751;28;20222;-72
2021/10/20 03:26:58;;;;;;;9.30;3.33;;;10.50;83.00;;;;;;4946189;29;20682;-72
2021/10/20 03:29:25;;;;;;;3.73;3.40;;;10.50;83.00;;;;;;4947940;28;20214;-72
2021/10/20 03:31:52;;;;;;;1.90;1.50;;;10.50;83.00;;;;;;4946901;28;20269;-72
2021/10/20 03:34:19;;;;;;;2.27;2.17;;;10.40;82.90;;;;;;4953684;29;20210;-72
2021/10/20 03:36:46;;;;;;;0.50;0.50;;;10.40;83.00;;;;;;4948036;29;20213;-72
2021/10/20 03:39:13;;;;;;;5.20;2.70;;;10.50;83.10;;;;;;4946090;28;20229;-72
2021/10/20 03:41:40;;;;;;;1.23;1.23;;;10.40;83.10;;;;;;4948745;29;20237;-72
2021/10/20 03:44:07;;;;;;;2.03;1.93;;;10.40;83.20;;;;;;4947724;28;20686;-72
2021/10/20 03:46:34;;;;;;;1.77;1.10;;;10.40;83.30;;;;;;4938288;29;20225;-72
2021/10/20 03:49:01;;;;;;;4.77;2.07;;;10.40;83.30;;;;;;4962626;28;20217;-72
2021/10/20 03:51:28;;;;;;;0.53;0.53;;;10.40;83.30;;;;;;4960854;28;20301;-73
2021/10/20 03:53:55;;;;;;;1.27;1.17;;;10.40;83.60;;;;;;4945139;29;20221;-73
2021/10/20 03:56:22;;;;;;;3.20;2.97;;;10.40;83.80;;;;;;4962753;28;20273;-73
2021/10/20 03:58:49;;;;;;;1.70;1.60;;;10.40;83.70;;;;;;4948975;28;20222;-73
2021/10/20 04:01:16;;;;;;;3.43;2.67;;;10.40;83.80;;;;;;4945008;28;20248;-74
2021/10/20 04:03:43;;;;;;;1.43;1.40;;;10.40;83.80;;;;;;4945445;29;20281;-73
2021/10/20 04:06:10;;;;;;;5.07;2.53;;;10.40;83.90;;;;;;4953789;29;20673;-73
2021/10/20 04:08:37;;;;;;;1.03;0.97;;;10.40;83.90;;;;;;4946517;29;20594;-73
2021/10/20 04:11:04;;;;;;;1.53;1.43;;;10.40;83.80;;;;;;4953746;29;20242;-73
2021/10/20 04:13:31;;;;;;;3.80;1.90;;;10.40;83.90;;;;;;4946263;28;20214;-73
2021/10/20 04:15:58;;;;;;;2.63;2.27;;;10.40;84.00;;;;;;4947341;29;20528;-73
2021/10/20 04:18:25;;;;;;;0.50;0.50;;;10.40;84.10;;;;;;4959884;28;20219;-73
2021/10/20 04:20:52;;;;;;;6.57;1.83;;;10.40;84.10;;;;;;4943460;28;20219;-73
2021/10/20 04:23:19;;;;;;;3.70;2.80;;;10.40;84.10;;;;;;4954925;29;20225;-73
2021/10/20 04:25:46;;;;;;;0.73;0.73;;;10.40;84.10;;;;;;4944387;29;20586;-73
2021/10/20 04:28:13;;;;;;;1.07;1.07;;;10.40;84.10;;;;;;4951959;29;20717;-73
2021/10/20 04:30:40;;;;;;;6.00;2.17;;;10.40;84.20;;;;;;4944138;28;20223;-73
2021/10/20 04:33:07;;;;;;;0.63;0.63;;;10.40;84.20;;;;;;4945822;28;20215;-73
2021/10/20 04:35:34;;;;;;;3.27;2.07;;;10.40;84.30;;;;;;4947096;29;20222;-73
2021/10/20 04:38:01;;;;;;;2.63;2.43;;;10.40;84.30;;;;;;4944476;28;20230;-73
2021/10/20 04:40:28;;;;;;;6.67;1.27;;;10.40;84.50;;;;;;4942802;29;20309;-73
2021/10/20 04:42:57;;;;;;;1.83;1.70;;;10.30;84.40;;;;;;4944486;29;20653;-73
2021/10/20 04:45:24;;;;;;;1.60;1.43;;;10.40;84.40;;;;;;4944440;28;20655;-73
2021/10/20 04:47:51;;;;;;;3.73;1.67;;;10.30;84.30;;;;;;4960981;28;20226;-74
2021/10/20 04:50:19;;;;;;;2.10;1.60;;;10.40;84.20;;;;;;4948584;28;20217;-74
2021/10/20 04:52:46;;;;;;;4.73;2.67;;;10.40;84.10;;;;;;4940507;28;20245;-74
2021/10/20 04:55:13;;;;;;;1.13;1.07;;;10.30;84.00;;;;;;4978766;28;20218;-73
2021/10/20 04:57:40;;;;;;;0.53;0.53;;;10.30;84.10;;;;;;4945080;29;20218;-74
2021/10/20 05:00:08;;;;;;;7.43;2.53;;;10.30;84.20;;;;;;4947161;28;20217;-73
2021/10/20 05:02:35;;;;;;;1.73;1.63;;;10.30;84.20;;;;;;4945320;28;20226;-73
2021/10/20 05:05:05;;;;;;;0.70;0.70;;;10.30;84.30;;;;;;4951719;28;20552;-73
2021/10/20 05:07:33;;;;;;;7.53;1.47;;;10.30;84.30;;;;;;4977351;28;20328;-73
2021/10/20 05:10:00;;;;;;;1.03;1.00;;;10.40;84.20;;;;;;4975246;28;20305;-73
2021/10/20 05:12:27;;;;;;;1.20;1.20;;;10.30;84.10;;;;;;4947033;28;20233;-73
2021/10/20 05:14:54;;;;;;;5.57;2.23;;;10.30;84.10;;;;;;4946318;29;20268;-73
2021/10/20 05:17:21;;;;;;;0.83;0.60;;;10.30;84.80;;;;;;4975609;28;20214;-73
2021/10/20 05:19:48;;;;;;;1.57;1.20;;;10.30;84.20;;;;;;4942043;28;20229;-74
2021/10/20 05:22:15;;;;;;;1.90;1.80;;;10.30;84.30;;;;;;4945713;29;20218;-74
2021/10/20 05:24:42;;;;;;;1.67;1.57;;;10.30;84.50;;;;;;4945221;28;20218;-74
2021/10/20 05:27:09;;;;;;;0.80;0.80;;;10.30;84.60;;;;;;4943483;29;20331;-74
2021/10/20 05:29:38;;;;;;;2.13;1.63;;;10.30;84.70;;;;;;4977637;28;20669;-74
2021/10/20 05:32:05;;;;;;;0.83;0.67;;;10.30;84.80;;;;;;4947244;28;20301;-73
2021/10/20 05:34:32;;;;;;;1.07;1.03;;;10.40;84.80;;;;;;4949971;28;20209;-73
2021/10/20 05:36:59;;;;;;;3.07;2.17;;;10.40;84.70;;;;;;4947470;29;20224;-73
2021/10/20 05:39:26;;;;;;;1.23;1.17;;;10.40;84.60;;;;;;4956067;29;20228;-73
2021/10/20 05:41:53;;;;;;;1.20;1.10;;;10.40;84.50;;;;;;4948627;29;20229;-73
2021/10/20 05:44:20;;;;;;;7.37;1.97;;;10.40;84.20;;;;;;4979464;28;20217;-73
2021/10/20 05:46:49;;;;;;;1.17;1.17;;;10.40;84.00;;;;;;4950247;28;20920;-73
2021/10/20 05:49:16;;;;;;;3.80;1.10;;;10.30;83.90;;;;;;4952232;28;20590;-73
2021/10/20 05:51:43;;;;;;;2.03;1.23;;;10.30;83.60;;;;;;4951019;28;20249;-73
2021/10/20 05:54:10;;;;;;;1.63;1.53;;;10.10;83.50;;;;;;4965631;28;20209;-73
2021/10/20 05:56:37;;;;;;;3.00;1.33;;;10.10;83.50;;;;;;4947893;29;20218;-74
2021/10/20 05:59:04;;;;;;;0.60;0.60;;;10.10;83.50;;;;;;4963842;28;20214;-74
2021/10/20 06:01:31;;;;;;;1.53;1.43;;;10.00;83.50;;;;;;4980787;28;20605;-74
2021/10/20 06:03:59;;;;;;;0.53;0.53;;;10.10;83.60;;;;;;4950819;28;20213;-73
2021/10/20 06:06:26;;;;;;;1.37;1.27;;;10.10;83.70;;;;;;4949574;29;20217;-74
2021/10/20 06:08:53;;;;;;;1.50;1.40;;;10.20;83.70;;;;;;4948891;28;20664;-74
2021/10/20 06:11:21;;;;;;;2.20;1.60;;;10.20;83.60;;;;;;4949408;28;20225;-73
2021/10/20 06:13:48;;;;;;;0.30;0.30;;;10.30;83.50;;;;;;4948410;29;20565;-73
2021/10/20 06:16:15;;;;;;;0.90;0.87;;;10.40;83.30;;;;;;4979072;28;20338;-73
2021/10/20 06:18:42;;;;;;;1.87;1.17;;;10.40;83.30;;;;;;4949014;28;20292;-73
2021/10/20 06:21:09;;;;;;;1.80;1.70;;;10.50;83.40;;;;;;4942671;28;20608;-73
2021/10/20 06:23:36;;;;;;;0.53;0.53;;;10.60;83.30;;;;;;4968950;28;20224;-73
2021/10/20 06:26:03;;;;;;;1.93;1.57;;;10.60;83.00;;;;;;4957447;28;20209;-73
2021/10/20 06:28:31;;;;;;;1.10;1.00;;;10.70;82.90;;;;;;4958107;28;20241;-73
2021/10/20 06:30:57;;;;;;;1.10;0.97;;;10.80;82.80;;;;;;4956871;28;20220;-73
2021/10/20 06:33:25;;;;;;;1.70;1.60;;;10.80;82.70;;;;;;4958093;28;20292;-73
2021/10/20 06:35:54;;;;;;;2.37;2.27;;;10.90;82.70;;;;;;4957314;28;20213;-73
2021/10/20 06:38:22;;;;;;;2.77;1.23;;;11.00;82.70;;;;;;4956716;28;20222;-73
2021/10/20 06:40:49;;;;;;;0.70;0.70;;;11.10;82.50;;;;;;4956600;28;20214;-74
2021/10/20 06:43:17;;;;;;;1.40;1.23;;;11.20;82.30;;;;;;4957714;29;20217;-73
2021/10/20 06:45:48;;;;;;;1.50;1.40;;;11.40;82.20;;;;;;4987162;28;20673;-74
2021/10/20 06:48:14;;;;;;;2.83;0.77;;;11.50;82.10;;;;;;4959579;28;20213;-74
2021/10/20 06:50:42;;;;;;;1.93;1.80;;;11.60;81.90;;;;;;4966356;28;20217;-74
2021/10/20 06:53:09;;;;;;;1.30;1.20;;;11.80;81.80;;;;;;4956970;29;20241;-74
2021/10/20 06:55:36;;;;;;;0.87;0.57;;;11.90;81.80;;;;;;4957715;28;20686;-73
2021/10/20 06:58:08;;;;;;;0.30;0.30;;;12.10;81.60;;;;;;4956863;29;20228;-74
2021/10/20 07:00:35;;;;;;;2.57;1.33;;;12.30;81.30;;;;;;4957352;28;20210;-73
2021/10/20 07:03:02;;;;;;;0.53;0.53;;;12.50;80.80;;;;;;4956925;29;20276;-74
2021/10/20 07:05:29;;;;;;;0.77;0.77;;;12.70;80.10;;;;;;4957032;29;20250;-74
2021/10/20 07:07:56;;;;;;;1.63;1.57;;;12.90;79.60;;;;;;4956359;29;20384;-73
2021/10/20 07:10:23;;;;;;;2.20;2.10;;;13.10;79.20;;;;;;4957310;28;20221;-74
2021/10/20 07:12:50;;;;;;;0.87;0.87;;;13.30;78.50;;;;;;4957073;28;20245;-73
2021/10/20 07:15:17;;;;;;;2.50;1.60;;;13.50;78.10;;;;;;4919872;28;20241;-73
2021/10/20 07:17:44;;;;;;;1.33;1.23;;;13.70;77.80;;;;;;4939252;29;20217;-73
2021/10/20 07:20:11;;;;;;;1.90;1.17;;;13.90;76.90;;;;;;4957108;28;20246;-73
2021/10/20 07:22:39;;;;;;;5.60;1.80;;;14.00;76.40;;;;;;4956855;28;20214;-73
2021/10/20 07:25:08;;;;;;;0.37;0.37;;;14.20;75.80;;;;;;4957146;28;20236;-72
2021/10/20 07:27:36;;;;;;;1.00;1.00;;;14.40;75.40;;;;;;4956292;28;20382;-72
2021/10/20 07:30:05;;;;;;;1.57;1.53;;;14.60;74.70;;;;;;4957571;28;20209;-73
2021/10/20 07:32:32;;;;;;;2.43;2.23;;;14.70;74.30;;;;;;4956565;28;20670;-73
2021/10/20 07:34:59;;;;;;;1.50;1.23;;;14.90;73.70;;;;;;4955486;28;20214;-73
2021/10/20 07:37:26;;;;;;;3.30;1.47;;;15.00;73.10;;;;;;4954226;29;20225;-72
2021/10/20 07:39:53;;;;;;;2.83;2.63;;;15.10;72.40;;;;;;4956842;28;20238;-72
2021/10/20 07:42:20;;;;;;;1.37;1.27;;;15.20;72.20;;;;;;4956388;28;20217;-73
2021/10/20 07:44:48;;;;;;;1.83;1.70;;;15.40;72.00;;;;;;4956868;28;20210;-73
2021/10/20 07:47:17;;;;;;;1.50;1.40;;;15.50;71.60;;;;;;4955210;29;20249;-73
2021/10/20 07:49:43;;;;;;;2.73;2.30;;;15.60;71.40;;;;;;4956014;28;20221;-73
2021/10/20 07:52:10;;;;;;;5.93;2.70;;;15.80;70.90;;;;;;4955647;28;20218;-72
2021/10/20 07:54:38;;;;;;;1.83;1.73;;;15.90;70.60;;;;;;4955391;29;20214;-72
2021/10/20 07:57:07;;;;;;;1.00;1.00;;;16.10;70.30;;;;;;4955238;28;20214;-72
2021/10/20 07:59:34;;;;;;;3.50;2.80;;;16.30;69.80;;;;;;4956298;28;20280;-73
2021/10/20 08:02:01;;;;;;;2.10;2.00;;;16.40;69.40;;;;;;4954926;29;20559;-73
2021/10/20 08:04:28;;;;;;;0.93;0.93;;;16.60;68.90;;;;;;4954789;29;20237;-73
2021/10/20 08:06:55;;;;;;;2.10;1.97;;;16.70;68.60;;;;;;4954710;29;20221;-72
2021/10/20 08:09:22;;;;;;;1.83;1.50;;;16.80;68.50;;;;;;4954891;28;20209;-73
2021/10/20 08:11:49;;;;;;;5.47;3.23;;;16.90;67.60;;;;;;4955459;28;20224;-72
2021/10/20 08:14:16;;;;;;;1.87;1.73;;;17.10;67.50;;;;;;4955768;28;20214;-72
2021/10/20 08:16:43;;;;;;;1.13;1.13;;;17.20;67.00;;;;;;4955552;28;20221;-73
2021/10/20 08:19:10;;;;;;;2.50;2.40;;;17.40;66.70;;;;;;4955389;28;20218;-72
2021/10/20 08:21:37;;;;;;;3.63;3.33;;;17.60;66.30;;;;;;4955259;28;20214;-73
2021/10/20 08:24:04;;;;;;;3.80;3.50;;;17.70;65.50;;;;;;4955674;28;20244;-72
2021/10/20 08:26:31;;;;;;;6.47;3.07;;;17.80;64.40;;;;;;4955102;28;20222;-72
2021/10/20 08:28:58;;;;;;;6.07;3.07;;;17.90;64.50;;;;;;4955835;28;20229;-72
2021/10/20 08:31:25;;;;;;;3.27;2.97;;;18.10;64.40;;;;;;4955372;28;20217;-72
2021/10/20 08:33:52;;;;;;;6.80;3.70;;;18.20;64.20;;;;;;4955609;28;20249;-71
2021/10/20 08:36:20;;;;;;;2.83;2.67;;;18.40;63.50;;;;;;4955097;28;20217;-72
2021/10/20 08:38:47;;;;;;;3.47;1.73;;;18.50;62.90;;;;;;4970650;28;20219;-72
2021/10/20 08:41:14;;;;;;;2.20;2.00;;;18.70;62.60;;;;;;4975414;28;20275;-72
2021/10/20 08:43:43;;;;;;;3.60;2.10;;;18.80;62.20;;;;;;4963856;28;20201;-72
2021/10/20 08:46:10;;;;;;;7.67;3.70;;;18.90;61.90;;;;;;4955712;28;20284;-72
2021/10/20 08:48:37;;;;;;;5.80;1.97;;;18.90;61.60;;;;;;4955204;28;20209;-72
2021/10/20 08:51:04;;;;;;;1.73;1.63;;;19.00;61.30;;;;;;4953865;28;20226;-72
2021/10/20 08:53:31;;;;;;;3.63;2.37;;;19.10;60.80;;;;;;4954005;28;20244;-72
2021/10/20 08:56:00;;;;;;;35.40;2.40;;;19.20;60.70;;;;;;4954703;28;20551;-72
2021/10/20 08:58:27;;;;;;;9.60;3.47;;;19.30;60.60;;;;;;4955114;28;20676;-72
2021/10/20 09:00:55;;;;;;;4.53;4.13;;;19.40;60.40;;;;;;4953717;29;20240;-72
2021/10/20 09:03:22;;;;;;;5.13;3.10;;;19.50;60.20;;;;;;4954204;29;20650;-72
2021/10/20 09:05:49;;;;;;;1.83;1.73;;;19.60;60.10;;;;;;4954172;29;20303;-72
2021/10/20 09:08:16;;;;;;;2.27;2.10;;;19.70;59.70;;;;;;4986338;28;20609;-72
2021/10/20 09:10:46;;;;;;;3.40;3.10;;;19.80;59.60;;;;;;4954007;28;20561;-72
2021/10/20 09:13:13;;;;;;;9.93;4.17;;;19.80;59.20;;;;;;4955171;28;20240;-72
2021/10/20 09:15:41;;;;;;;2.17;1.87;;;20.00;58.80;;;;;;4954832;28;20206;-72
2021/10/20 09:18:11;;;;;;;3.53;2.63;;;20.10;58.70;;;;;;4955282;28;20214;-72
2021/10/20 09:20:44;;;;;;;2.63;2.50;;;20.20;58.30;;;;;;4954460;28;20214;-72
2021/10/20 09:23:21;;;;;;;1.87;1.77;;;20.30;57.50;;;;;;4955650;28;20226;-72
2021/10/20 09:25:56;;;;;;;1.97;1.77;;;20.30;57.00;;;;;;4955165;28;20228;-72
2021/10/20 09:28:31;;;;;;;1.97;1.87;;;20.30;57.00;;;;;;4954068;29;20610;-72
2021/10/20 09:31:04;;;;;;;9.43;3.70;;;20.30;56.80;;;;;;4953790;29;20214;-72
2021/10/20 09:33:36;;;;;;;2.27;1.63;;;20.40;56.70;;;;;;4954773;28;20241;-73
2021/10/20 09:36:08;;;;;;;2.20;2.10;;;20.50;56.80;;;;;;4954854;28;20210;-72
2021/10/20 09:38:38;;;;;;;6.27;3.47;;;20.60;56.40;;;;;;4954935;28;20226;-72
2021/10/20 09:41:08;;;;;;;5.80;4.33;;;20.60;56.40;;;;;;4954528;28;20210;-73
2021/10/20 09:44:01;;;;;;;3.87;3.67;;;20.60;56.50;;;;;;4954841;28;20210;-72
2021/10/20 09:46:39;;;;;;;4.37;1.70;;;20.60;56.50;;;;;;4955104;28;20218;-72
2021/10/20 09:49:15;;;;;;;1.60;1.50;;;20.80;56.60;;;;;;4954799;28;20221;-72
2021/10/20 09:51:43;;;;;;;4.73;3.67;;;20.80;56.20;;;;;;4954419;28;20265;-73
2021/10/20 09:54:41;;;;;;;4.57;3.47;;;20.90;55.90;;;;;;4955006;28;20230;-72
2021/10/20 09:57:08;;;;;;;10.93;2.93;;;21.00;55.60;;;;;;4947566;28;20234;-73
2021/10/20 09:59:35;;;;;;;3.07;2.43;;;21.10;55.10;;;;;;4934921;29;20610;-72
2021/10/20 10:02:02;;;;;;;4.87;2.90;;;21.20;54.90;;;;;;4935600;29;20538;-72
2021/10/20 10:04:29;;;;;;;4.40;2.60;;;21.40;54.70;;;;;;4966393;28;20215;-72
2021/10/20 10:06:57;;;;;;;4.20;3.37;;;21.50;54.00;;;;;;4934622;29;20225;-73
2021/10/20 10:09:27;;;;;;;2.60;2.23;;;21.70;53.80;;;;;;4934709;29;20219;-72
2021/10/20 10:12:17;;;;;;;5.40;2.90;;;21.80;53.90;;;;;;4948681;29;20786;-73
2021/10/20 10:14:55;;;;;;;5.73;4.30;;;21.90;53.40;;;;;;4955407;28;20218;-73
2021/10/20 10:17:44;;;;;;;3.23;2.93;;;22.00;52.90;;;;;;4954518;29;20281;-71
2021/10/20 10:20:13;;;;;;;2.00;1.90;;;22.00;53.30;;;;;;4957005;28;20226;-72
2021/10/20 10:22:51;;;;;;;4.20;2.90;;;22.00;53.50;;;;;;4957155;29;20222;-72
2021/10/20 10:25:36;;;;;;;2.77;2.57;;;21.90;53.70;;;;;;4957671;28;20217;-73
2021/10/20 10:28:21;;;;;;;1.87;1.77;;;22.00;53.70;;;;;;4938412;29;20242;-72
2021/10/20 10:30:53;;;;;;;3.03;2.80;;;22.20;53.50;;;;;;4938214;29;20222;-72
2021/10/20 10:33:24;;;;;;;2.17;2.03;;;22.30;53.30;;;;;;4969375;28;20245;-73
2021/10/20 10:36:16;;;;;;;2.53;2.33;;;22.50;53.10;;;;;;4968919;28;20225;-72
2021/10/20 10:38:49;;;;;;;2.97;2.70;;;22.70;52.90;;;;;;4951966;28;20661;-72
2021/10/20 10:41:23;;;;;;;3.60;2.97;;;22.90;52.40;;;;;;4988132;28;20566;-72
2021/10/20 10:44:11;;;;;;;2.87;1.80;;;23.00;52.20;;;;;;4957844;28;20228;-72
2021/10/20 10:47:07;;;;;;;2.87;2.70;;;23.10;51.80;;;;;;4957476;28;20214;-72
2021/10/20 10:49:38;;;;;;;3.20;1.87;;;23.10;51.60;;;;;;4956957;28;20216;-73
2021/10/20 10:52:13;;;;;;;2.17;2.07;;;23.10;51.40;;;;;;4957500;29;20233;-72
2021/10/20 10:54:54;;;;;;;3.70;3.10;;;23.00;51.80;;;;;;4957766;28;20236;-72
2021/10/20 10:57:21;;;;;;;2.50;1.87;;;23.00;51.80;;;;;;4938075;29;20214;-72
2021/10/20 10:59:53;;;;;;;3.27;2.03;;;23.00;50.70;;;;;;4969319;28;20539;-71
2021/10/20 11:02:44;;;;;;;0.90;0.90;;;23.10;50.60;;;;;;4937998;29;20219;-71
2021/10/20 11:05:12;;;;;;;3.97;3.03;;;23.10;49.90;;;;;;4937122;29;20703;-71
2021/10/20 11:07:46;;;;;;;2.53;2.33;;;23.10;50.30;;;;;;4943650;28;20213;-72
2021/10/20 11:10:15;;;;;;;2.17;1.73;;;23.20;50.40;;;;;;4952535;28;20214;-72
2021/10/20 11:12:49;;;;;;;6.33;1.10;;;23.20;49.80;;;;;;4937516;29;20254;-71
2021/10/20 11:15:18;;;;;;;7.67;1.67;;;23.20;49.60;;;;;;4937696;29;20238;-72
2021/10/20 11:17:46;;;;;;;8.00;2.37;;;23.20;50.10;;;;;;4937254;29;20563;-71
2021/10/20 11:20:19;;;;;;;1.47;1.20;;;23.30;50.20;;;;;;4938334;29;20570;-72
2021/10/20 11:22:52;;;;;;;10.50;1.97;;;23.30;50.20;;;;;;4944978;28;20229;-72
2021/10/20 11:25:21;;;;;;;1.67;0.67;;;23.30;49.60;;;;;;4955943;29;20299;-71
2021/10/20 11:27:51;;;;;;;0.90;0.90;;;23.40;50.10;;;;;;4986323;28;20241;-72
2021/10/20 11:30:21;;;;;;;0.77;0.77;;;23.50;49.80;;;;;;4954521;28;20241;-72
2021/10/20 11:32:49;;;;;;;5.37;1.20;;;23.60;50.00;;;;;;4954714;28;20210;-71
2021/10/20 11:35:24;;;;;;;1.40;0.90;;;23.70;50.00;;;;;;4955126;29;20213;-72
2021/10/20 11:37:53;;;;;;;7.73;1.47;;;23.80;49.90;;;;;;4952917;28;20232;-72
2021/10/20 11:40:21;;;;;;;2.37;2.20;;;23.80;49.50;;;;;;4938221;29;20291;-72
2021/10/20 11:42:49;;;;;;;0.77;0.77;;;23.90;49.60;;;;;;4940587;29;20202;-71
2021/10/20 11:45:18;;;;;;;1.17;1.10;;;23.80;49.30;;;;;;4956167;28;20214;-71
2021/10/20 11:47:45;;;;;;;1.57;1.43;;;23.80;49.60;;;;;;4957488;28;20210;-71
2021/10/20 11:50:17;;;;;;;3.10;1.07;;;23.90;49.30;;;;;;4958964;28;20220;-71
2021/10/20 11:53:04;;;;;;;1.33;1.03;;;23.90;49.10;;;;;;4954730;28;20210;-72
2021/10/20 11:55:32;;;;;;;2.20;1.37;;;23.90;48.90;;;;;;4954377;28;20237;-72
2021/10/20 11:57:59;;;;;;;1.23;0.90;;;24.00;49.00;;;;;;4955084;28;20578;-72
2021/10/20 12:00:26;;;;;;;1.20;1.20;;;24.00;49.00;;;;;;4950865;28;20210;-72
2021/10/20 12:02:53;;;;;;;0.50;0.50;;;24.00;48.30;;;;;;4935630;29;20417;-72
2021/10/20 12:05:20;;;;;;;1.10;1.00;;;23.90;48.50;;;;;;4934997;29;20559;-72
2021/10/20 12:07:48;;;;;;;0.90;0.90;;;23.90;48.70;;;;;;4942691;28;20280;-72
2021/10/20 12:10:18;;;;;;;0.47;0.27;;;24.10;48.90;;;;;;4956319;28;20210;-72
2021/10/20 12:12:47;;;;;;;0.80;0.80;;;24.10;48.70;;;;;;4954067;29;20217;-72
2021/10/20 12:15:20;;;;;;;0.70;0.70;;;24.20;48.50;;;;;;4955105;29;20523;-72
2021/10/20 12:17:50;;;;;;;1.00;1.00;;;24.20;48.50;;;;;;4954575;28;20213;-72
2021/10/20 12:20:18;;;;;;;1.40;1.07;;;24.20;48.60;;;;;;4954511;28;20272;-72
2021/10/20 12:22:49;;;;;;;0.43;0.43;;;24.30;48.40;;;;;;4955612;28;20214;-72
2021/10/20 12:25:17;;;;;;;1.60;0.90;;;24.30;48.40;;;;;;4955282;28;20519;-72
2021/10/20 12:27:44;;;;;;;0.60;0.60;;;24.30;48.40;;;;;;4954735;28;20241;-72
2021/10/20 12:30:13;;;;;;;0.87;0.87;;;24.30;48.30;;;;;;4955904;28;20217;-72
2021/10/20 12:32:42;;;;;;;2.00;0.73;;;24.30;48.10;;;;;;4955125;28;20218;-72
2021/10/20 12:35:12;;;;;;;1.83;1.70;;;24.20;48.10;;;;;;4954986;29;20248;-72
2021/10/20 12:37:45;;;;;;;0.87;0.53;;;24.20;48.20;;;;;;4955267;28;20272;-72
2021/10/20 12:40:20;;;;;;;0.90;0.83;;;24.10;48.20;;;;;;4955031;28;20214;-72
2021/10/20 12:42:51;;;;;;;2.73;2.53;;;24.10;48.20;;;;;;4953908;28;20581;-71
2021/10/20 12:45:23;;;;;;;0.40;0.40;;;24.10;47.90;;;;;;4955202;29;20248;-71
2021/10/20 12:47:52;;;;;;;0.63;0.63;;;24.00;48.10;;;;;;4954389;29;20308;-71
2021/10/20 12:50:25;;;;;;;0.40;0.40;;;23.90;47.90;;;;;;4953640;28;20214;-71
2021/10/20 12:52:52;;;;;;;1.93;0.87;;;23.70;47.70;;;;;;4955005;28;20210;-71